LIMP/PMF METAR and TAF weather

Enter ICAO airport designator
Station Type Date Time Source
LIMP METAR 2022/06/30 20:50 UTC NOAA

LIMP 302050Z 20005KT CAVOK 25/06 Q1011


Station Type Date Time Source
LIMP Decoded METAR 2022/06/30 20:50 UTC NOAA

Parma, Italy (LIMP) 44-49-17N 010-17-41E
Jun 30, 2022 - 04:50 PM EDT / 2022.06.30 2050 UTC
Wind: from the SSW (200 degrees) at 6 MPH (5 KT):0
Visibility: greater than 7 mile(s):0
Temperature: 77 F (25 C)
Dew Point: 42 F (6 C)
Relative Humidity: 29%
Pressure (altimeter): 29.85 in. Hg (1011 hPa)
ob: LIMP 302050Z 20005KT CAVOK 25/06 Q1011
cycle: 21

Station Type Date Time Source
LIMP TAF 2022/06/30 18:21 UTC NOAA

TAF LIMP 301700Z 3018/0118 22008KT CAVOK

Example: see airport list